NKS2203 KIND-KFLL
Flight info
| Callsign | NKS2203 |
|---|---|
| Flight time | 2h 4m |
| Altitude | 37000 |
| Route | DAWNN1 IIU Q79 ZPLEN TEEKY4 |
| Aircraft | A320/M-SDE3FGHIRWY/LB1 |
Departure
| Time | 2026-05-05 22:50 |
|---|---|
| Airport | Indianapolis International Airport (KIND) |
Arrival
| Time | 2026-05-06 00:55 |
|---|---|
| Airport | Fort Lauderdale Hollywood International Airport (KFLL) |
| Time | Latitude | Longitude | Altitude | Speed | Heading |
|---|---|---|---|---|---|
| 2026-05-05 22:20 | 39.71550 | -86.29523 | 787 ft | 0 kts | 139° |
| 2026-05-05 22:32 | 39.71574 | -86.29485 | 790 ft | 0 kts | 146° |
| 2026-05-05 22:40 | 39.71580 | -86.29490 | 786 ft | 2 kts | 144° |
| 2026-05-05 22:40 | 39.71595 | -86.29506 | 786 ft | 3 kts | 135° |
| 2026-05-05 22:40 | 39.71608 | -86.29525 | 786 ft | 3 kts | 118° |
| 2026-05-05 22:41 | 39.71615 | -86.29547 | 786 ft | 3 kts | 81° |
| 2026-05-05 22:41 | 39.71611 | -86.29562 | 786 ft | 1 kts | 44° |
| 2026-05-05 22:41 | 39.71608 | -86.29565 | 786 ft | 0 kts | 44° |
| 2026-05-05 22:44 | 39.71609 | -86.29564 | 786 ft | 2 kts | 44° |
| 2026-05-05 22:45 | 39.71641 | -86.29524 | 786 ft | 10 kts | 44° |
| 2026-05-05 22:45 | 39.71699 | -86.29443 | 786 ft | 15 kts | 51° |
| 2026-05-05 22:45 | 39.71754 | -86.29321 | 786 ft | 16 kts | 92° |
| 2026-05-05 22:45 | 39.71682 | -86.29207 | 786 ft | 17 kts | 140° |
| 2026-05-05 22:46 | 39.71574 | -86.29108 | 784 ft | 20 kts | 169° |
| 2026-05-05 22:46 | 39.71467 | -86.29214 | 783 ft | 22 kts | 231° |
| 2026-05-05 22:46 | 39.71367 | -86.29371 | 782 ft | 24 kts | 230° |
| 2026-05-05 22:46 | 39.71225 | -86.29390 | 780 ft | 22 kts | 175° |
| 2026-05-05 22:47 | 39.71077 | -86.29424 | 781 ft | 21 kts | 210° |
| 2026-05-05 22:47 | 39.70962 | -86.29550 | 780 ft | 22 kts | 223° |
| 2026-05-05 22:47 | 39.70849 | -86.29686 | 783 ft | 23 kts | 222° |
| 2026-05-05 22:47 | 39.70747 | -86.29830 | 785 ft | 19 kts | 231° |
| 2026-05-05 22:48 | 39.70661 | -86.29934 | 785 ft | 15 kts | 220° |
| 2026-05-05 22:48 | 39.70570 | -86.30044 | 784 ft | 19 kts | 223° |
| 2026-05-05 22:48 | 39.70479 | -86.30141 | 782 ft | 13 kts | 186° |
| 2026-05-05 22:48 | 39.70413 | -86.30080 | 781 ft | 17 kts | 133° |
| 2026-05-05 22:49 | 39.70386 | -86.29978 | 783 ft | 9 kts | 41° |
| 2026-05-05 22:49 | 39.70518 | -86.29815 | 784 ft | 55 kts | 44° |
| 2026-05-05 22:49 | 39.70930 | -86.29297 | 779 ft | 108 kts | 44° |
| 2026-05-05 22:49 | 39.71566 | -86.28487 | 785 ft | 148 kts | 43° |
| 2026-05-05 22:50 | 39.72239 | -86.27511 | 1254 ft | 145 kts | 53° |
| 2026-05-05 22:50 | 39.72695 | -86.26320 | 1764 ft | 149 kts | 62° |
| 2026-05-05 22:50 | 39.73070 | -86.25042 | 2374 ft | 154 kts | 64° |
| 2026-05-05 22:50 | 39.73445 | -86.23672 | 2768 ft | 171 kts | 66° |
| 2026-05-05 22:51 | 39.73886 | -86.22122 | 3042 ft | 197 kts | 65° |
| 2026-05-05 22:51 | 39.74160 | -86.20292 | 3361 ft | 221 kts | 96° |
| 2026-05-05 22:51 | 39.73472 | -86.18429 | 3624 ft | 244 kts | 139° |
| 2026-05-05 22:51 | 39.71915 | -86.17459 | 4041 ft | 256 kts | 179° |
| 2026-05-05 22:52 | 39.70161 | -86.17703 | 4874 ft | 254 kts | 196° |
| 2026-05-05 22:52 | 39.68465 | -86.18338 | 5747 ft | 254 kts | 200° |
| 2026-05-05 22:52 | 39.66790 | -86.19089 | 6585 ft | 254 kts | 202° |
| 2026-05-05 22:52 | 39.65120 | -86.19853 | 7357 ft | 256 kts | 202° |
| 2026-05-05 22:53 | 39.63427 | -86.20604 | 8184 ft | 258 kts | 201° |
| 2026-05-05 22:53 | 39.61711 | -86.21335 | 9108 ft | 261 kts | 201° |
| 2026-05-05 22:53 | 39.59974 | -86.22055 | 9989 ft | 263 kts | 201° |
| 2026-05-05 22:53 | 39.58188 | -86.22785 | 10457 ft | 279 kts | 201° |
| 2026-05-05 22:54 | 39.56260 | -86.23563 | 10654 ft | 300 kts | 201° |
| 2026-05-05 22:54 | 39.54232 | -86.24365 | 11200 ft | 308 kts | 201° |
| 2026-05-05 22:54 | 39.52164 | -86.25170 | 11876 ft | 312 kts | 202° |
| 2026-05-05 22:54 | 39.50108 | -86.25966 | 12500 ft | 314 kts | 202° |
| 2026-05-05 22:55 | 39.47971 | -86.26799 | 12895 ft | 317 kts | 203° |
| 2026-05-05 22:55 | 39.45859 | -86.27624 | 12977 ft | 317 kts | 204° |
| 2026-05-05 22:55 | 39.43776 | -86.28441 | 12984 ft | 317 kts | 204° |
| 2026-05-05 22:55 | 39.41664 | -86.29268 | 13028 ft | 320 kts | 204° |
| 2026-05-05 22:56 | 39.39503 | -86.30114 | 13708 ft | 321 kts | 204° |
| 2026-05-05 22:56 | 39.37357 | -86.30949 | 14310 ft | 324 kts | 202° |
| 2026-05-05 22:56 | 39.35097 | -86.31422 | 14827 ft | 336 kts | 191° |
| 2026-05-05 22:56 | 39.32711 | -86.31287 | 15334 ft | 347 kts | 183° |
| 2026-05-05 22:57 | 39.30291 | -86.31005 | 15878 ft | 351 kts | 183° |
| 2026-05-05 22:57 | 39.27847 | -86.30723 | 16388 ft | 354 kts | 183° |
| 2026-05-05 22:57 | 39.25411 | -86.30449 | 16921 ft | 358 kts | 183° |
| 2026-05-05 22:57 | 39.22917 | -86.30174 | 17472 ft | 361 kts | 183° |
| 2026-05-05 22:58 | 39.20403 | -86.29899 | 18007 ft | 365 kts | 183° |
| 2026-05-05 22:58 | 39.17862 | -86.29619 | 18490 ft | 368 kts | 183° |
| 2026-05-05 22:58 | 39.15298 | -86.29332 | 18996 ft | 371 kts | 183° |
| 2026-05-05 22:58 | 39.12678 | -86.29039 | 19513 ft | 375 kts | 183° |
| 2026-05-05 22:59 | 39.10097 | -86.28751 | 20031 ft | 378 kts | 183° |
| 2026-05-05 22:59 | 39.07463 | -86.28458 | 20530 ft | 382 kts | 183° |
| 2026-05-05 22:59 | 39.04797 | -86.28164 | 20997 ft | 386 kts | 183° |
| 2026-05-05 22:59 | 39.02112 | -86.27864 | 21466 ft | 389 kts | 183° |
| 2026-05-05 23:00 | 38.96670 | -86.27256 | 22435 ft | 395 kts | 183° |
| 2026-05-05 23:00 | 38.93918 | -86.26953 | 22910 ft | 399 kts | 184° |
| 2026-05-05 23:00 | 38.91142 | -86.26651 | 23376 ft | 402 kts | 184° |
| 2026-05-05 23:01 | 38.88341 | -86.26342 | 23779 ft | 406 kts | 184° |
| 2026-05-05 23:01 | 38.85518 | -86.26028 | 24155 ft | 409 kts | 184° |
| 2026-05-05 23:01 | 38.82672 | -86.25711 | 24494 ft | 412 kts | 184° |
| 2026-05-05 23:01 | 38.79807 | -86.25397 | 24865 ft | 414 kts | 184° |
| 2026-05-05 23:02 | 38.76922 | -86.25083 | 25204 ft | 417 kts | 184° |
| 2026-05-05 23:02 | 38.74018 | -86.24768 | 25535 ft | 420 kts | 184° |
| 2026-05-05 23:02 | 38.71095 | -86.24447 | 25876 ft | 423 kts | 184° |
| 2026-05-05 23:02 | 38.68149 | -86.24123 | 26225 ft | 426 kts | 184° |
| 2026-05-05 23:03 | 38.65186 | -86.23799 | 26560 ft | 429 kts | 184° |
| 2026-05-05 23:03 | 38.62205 | -86.23410 | 26877 ft | 436 kts | 179° |
| 2026-05-05 23:03 | 38.59214 | -86.22432 | 27153 ft | 451 kts | 168° |
| 2026-05-05 23:03 | 38.56328 | -86.20705 | 27456 ft | 466 kts | 156° |
| 2026-05-05 23:04 | 38.53668 | -86.18231 | 27764 ft | 481 kts | 144° |
| 2026-05-05 23:04 | 38.51326 | -86.15106 | 28053 ft | 490 kts | 137° |
| 2026-05-05 23:04 | 38.49047 | -86.11862 | 28366 ft | 492 kts | 137° |
| 2026-05-05 23:04 | 38.46745 | -86.08610 | 28655 ft | 495 kts | 138° |
| 2026-05-05 23:05 | 38.44422 | -86.05345 | 28950 ft | 498 kts | 138° |
| 2026-05-05 23:05 | 38.42087 | -86.02070 | 29243 ft | 501 kts | 138° |
| 2026-05-05 23:05 | 38.39737 | -85.98778 | 29528 ft | 503 kts | 138° |
| 2026-05-05 23:05 | 38.37370 | -85.95463 | 29818 ft | 506 kts | 138° |
| 2026-05-05 23:06 | 38.34997 | -85.92140 | 30144 ft | 507 kts | 138° |
| 2026-05-05 23:06 | 38.32619 | -85.88809 | 30479 ft | 508 kts | 138° |
| 2026-05-05 23:06 | 38.30238 | -85.85475 | 30794 ft | 510 kts | 138° |
| 2026-05-05 23:06 | 38.27849 | -85.82131 | 31072 ft | 511 kts | 138° |
| 2026-05-05 23:07 | 38.25452 | -85.78776 | 31345 ft | 513 kts | 138° |
| 2026-05-05 23:07 | 38.23048 | -85.75417 | 31650 ft | 514 kts | 138° |
| 2026-05-05 23:07 | 38.20637 | -85.72054 | 31962 ft | 516 kts | 139° |
| 2026-05-05 23:07 | 38.18206 | -85.68678 | 32279 ft | 518 kts | 139° |
| 2026-05-05 23:08 | 38.15768 | -85.65301 | 32585 ft | 519 kts | 140° |
| 2026-05-05 23:08 | 38.13165 | -85.62175 | 32892 ft | 511 kts | 149° |
| 2026-05-05 23:08 | 38.10293 | -85.59577 | 33166 ft | 502 kts | 159° |
| 2026-05-05 23:08 | 38.07231 | -85.57553 | 33457 ft | 491 kts | 167° |
| 2026-05-05 23:09 | 38.04054 | -85.56106 | 33758 ft | 480 kts | 176° |
| 2026-05-05 23:09 | 38.00829 | -85.55163 | 34033 ft | 474 kts | 180° |
| 2026-05-05 23:09 | 37.97603 | -85.54302 | 34315 ft | 474 kts | 180° |
| 2026-05-05 23:09 | 37.94412 | -85.53448 | 34598 ft | 474 kts | 180° |
| 2026-05-05 23:10 | 37.91143 | -85.52569 | 34890 ft | 474 kts | 180° |
| 2026-05-05 23:10 | 37.87917 | -85.51697 | 35156 ft | 474 kts | 180° |
| 2026-05-05 23:10 | 37.84737 | -85.50837 | 35359 ft | 474 kts | 180° |
| 2026-05-05 23:10 | 37.81510 | -85.49970 | 35576 ft | 475 kts | 180° |
| 2026-05-05 23:11 | 37.78276 | -85.49105 | 35814 ft | 475 kts | 180° |
| 2026-05-05 23:11 | 37.75043 | -85.48242 | 36054 ft | 474 kts | 180° |
| 2026-05-05 23:11 | 37.71818 | -85.47377 | 36289 ft | 474 kts | 180° |
| 2026-05-05 23:11 | 37.68586 | -85.46510 | 36522 ft | 474 kts | 180° |
| 2026-05-05 23:12 | 37.65353 | -85.45645 | 36753 ft | 474 kts | 180° |
| 2026-05-05 23:12 | 37.62120 | -85.44782 | 36811 ft | 476 kts | 180° |
| 2026-05-05 23:12 | 37.55600 | -85.43045 | 36842 ft | 480 kts | 180° |
| 2026-05-05 23:13 | 37.49050 | -85.41295 | 36855 ft | 482 kts | 180° |
| 2026-05-05 23:13 | 37.42464 | -85.39542 | 36855 ft | 483 kts | 180° |
| 2026-05-05 23:14 | 37.35880 | -85.37796 | 36852 ft | 485 kts | 180° |
| 2026-05-05 23:14 | 37.29254 | -85.36042 | 36865 ft | 487 kts | 180° |
| 2026-05-05 23:15 | 37.22664 | -85.34293 | 36871 ft | 487 kts | 180° |
| 2026-05-05 23:15 | 37.16020 | -85.32538 | 36874 ft | 488 kts | 180° |
| 2026-05-05 23:16 | 37.09372 | -85.30782 | 36846 ft | 489 kts | 180° |
| 2026-05-05 23:16 | 37.02709 | -85.29018 | 36870 ft | 489 kts | 180° |
| 2026-05-05 23:17 | 36.96039 | -85.27272 | 36884 ft | 490 kts | 180° |
| 2026-05-05 23:17 | 36.89361 | -85.25532 | 36859 ft | 490 kts | 180° |
| 2026-05-05 23:18 | 36.82680 | -85.23785 | 36884 ft | 491 kts | 180° |
| 2026-05-05 23:18 | 36.75987 | -85.22032 | 36898 ft | 491 kts | 180° |
| 2026-05-05 23:19 | 36.69288 | -85.20280 | 36914 ft | 492 kts | 180° |
| 2026-05-05 23:19 | 36.62624 | -85.18549 | 36882 ft | 492 kts | 180° |
| 2026-05-05 23:20 | 36.55928 | -85.16812 | 36886 ft | 491 kts | 180° |
| 2026-05-05 23:20 | 36.49226 | -85.15069 | 36894 ft | 492 kts | 179° |
| 2026-05-05 23:21 | 36.43644 | -85.13617 | 36910 ft | 492 kts | 179° |
| 2026-05-05 23:21 | 36.36936 | -85.11888 | 36885 ft | 493 kts | 179° |
| 2026-05-05 23:22 | 36.30204 | -85.10153 | 36902 ft | 494 kts | 179° |
| 2026-05-05 23:22 | 36.23462 | -85.08413 | 36934 ft | 494 kts | 179° |
| 2026-05-05 23:23 | 36.16761 | -85.06692 | 36955 ft | 494 kts | 179° |
| 2026-05-05 23:23 | 36.10024 | -85.04971 | 36955 ft | 495 kts | 179° |
| 2026-05-05 23:24 | 36.03280 | -85.03239 | 36965 ft | 495 kts | 179° |
| 2026-05-05 23:24 | 35.96513 | -85.01509 | 36971 ft | 496 kts | 179° |
| 2026-05-05 23:25 | 35.89734 | -84.99777 | 36977 ft | 496 kts | 179° |
| 2026-05-05 23:25 | 35.82963 | -84.98046 | 36939 ft | 497 kts | 179° |
| 2026-05-05 23:26 | 35.76186 | -84.96320 | 36939 ft | 497 kts | 179° |
| 2026-05-05 23:26 | 35.69413 | -84.94599 | 36952 ft | 497 kts | 179° |
| 2026-05-05 23:27 | 35.62628 | -84.92888 | 36924 ft | 497 kts | 179° |
| 2026-05-05 23:27 | 35.55893 | -84.91182 | 36940 ft | 497 kts | 179° |
| 2026-05-05 23:28 | 35.49112 | -84.89462 | 36957 ft | 498 kts | 179° |
| 2026-05-05 23:28 | 35.42322 | -84.87740 | 36953 ft | 498 kts | 179° |
| 2026-05-05 23:29 | 35.35540 | -84.86026 | 36922 ft | 497 kts | 179° |
| 2026-05-05 23:29 | 35.28758 | -84.84323 | 36941 ft | 498 kts | 179° |
| 2026-05-05 23:30 | 35.21970 | -84.82620 | 36946 ft | 498 kts | 179° |
| 2026-05-05 23:30 | 35.15184 | -84.80904 | 36965 ft | 498 kts | 179° |
| 2026-05-05 23:31 | 35.08407 | -84.79200 | 36946 ft | 497 kts | 179° |
| 2026-05-05 23:31 | 35.01627 | -84.77512 | 36974 ft | 498 kts | 179° |
| 2026-05-05 23:32 | 34.94834 | -84.75815 | 36991 ft | 498 kts | 179° |
| 2026-05-05 23:32 | 34.88049 | -84.74125 | 36999 ft | 498 kts | 179° |
| 2026-05-05 23:33 | 34.81254 | -84.72440 | 36987 ft | 498 kts | 179° |
| 2026-05-05 23:33 | 34.74457 | -84.70757 | 36999 ft | 499 kts | 179° |
| 2026-05-05 23:34 | 34.67711 | -84.69075 | 37000 ft | 497 kts | 179° |
| 2026-05-05 23:34 | 34.60925 | -84.67391 | 36960 ft | 498 kts | 179° |
| 2026-05-05 23:35 | 34.54129 | -84.65695 | 36967 ft | 499 kts | 178° |
| 2026-05-05 23:35 | 34.47332 | -84.63915 | 36982 ft | 500 kts | 178° |
| 2026-05-05 23:36 | 34.40528 | -84.62101 | 37015 ft | 501 kts | 178° |
| 2026-05-05 23:36 | 34.33717 | -84.60311 | 37005 ft | 501 kts | 178° |
| 2026-05-05 23:37 | 34.26902 | -84.58543 | 37014 ft | 501 kts | 178° |
| 2026-05-05 23:37 | 34.20070 | -84.56777 | 37023 ft | 502 kts | 178° |
| 2026-05-05 23:38 | 34.13229 | -84.54995 | 37034 ft | 502 kts | 178° |
| 2026-05-05 23:38 | 34.06392 | -84.53216 | 37009 ft | 502 kts | 178° |
| 2026-05-05 23:39 | 33.99544 | -84.51497 | 37020 ft | 501 kts | 179° |
| 2026-05-05 23:39 | 33.92730 | -84.49992 | 37002 ft | 500 kts | 181° |
| 2026-05-05 23:40 | 33.85879 | -84.48556 | 37006 ft | 500 kts | 181° |
| 2026-05-05 23:40 | 33.79021 | -84.47076 | 36990 ft | 501 kts | 180° |
| 2026-05-05 23:41 | 33.72158 | -84.45554 | 37016 ft | 502 kts | 180° |
| 2026-05-05 23:41 | 33.65294 | -84.44028 | 37029 ft | 502 kts | 180° |
| 2026-05-05 23:42 | 33.58469 | -84.41723 | 37033 ft | 514 kts | 171° |
| 2026-05-05 23:42 | 33.51670 | -84.38992 | 37002 ft | 515 kts | 171° |
| 2026-05-05 23:43 | 33.44874 | -84.36262 | 37066 ft | 515 kts | 171° |
| 2026-05-05 23:43 | 33.38063 | -84.33531 | 37076 ft | 516 kts | 171° |
| 2026-05-05 23:44 | 33.31295 | -84.30825 | 37080 ft | 516 kts | 171° |
| 2026-05-05 23:44 | 33.24480 | -84.28106 | 37077 ft | 516 kts | 171° |
| 2026-05-05 23:45 | 33.17663 | -84.25391 | 37053 ft | 516 kts | 171° |
| 2026-05-05 23:45 | 33.10841 | -84.22673 | 37040 ft | 517 kts | 171° |
| 2026-05-05 23:46 | 33.04018 | -84.19962 | 37065 ft | 517 kts | 171° |
| 2026-05-05 23:46 | 32.97183 | -84.17249 | 37044 ft | 517 kts | 171° |
| 2026-05-05 23:47 | 32.90387 | -84.14560 | 37051 ft | 517 kts | 171° |
| 2026-05-05 23:47 | 32.83545 | -84.11852 | 37049 ft | 518 kts | 171° |
| 2026-05-05 23:48 | 32.76700 | -84.09150 | 37039 ft | 518 kts | 171° |
| 2026-05-05 23:48 | 32.69847 | -84.06455 | 37010 ft | 519 kts | 170° |
| 2026-05-05 23:49 | 32.62995 | -84.03751 | 37027 ft | 519 kts | 170° |
| 2026-05-05 23:49 | 32.56137 | -84.01057 | 37042 ft | 519 kts | 171° |
| 2026-05-05 23:50 | 32.49275 | -83.98371 | 37053 ft | 519 kts | 170° |
| 2026-05-05 23:50 | 32.42417 | -83.95685 | 37047 ft | 519 kts | 171° |
| 2026-05-05 23:51 | 32.35551 | -83.93002 | 37050 ft | 519 kts | 170° |
| 2026-05-05 23:51 | 32.28733 | -83.90342 | 37050 ft | 519 kts | 170° |
| 2026-05-05 23:52 | 32.21873 | -83.87668 | 37044 ft | 519 kts | 170° |
| 2026-05-05 23:52 | 32.15006 | -83.84992 | 37017 ft | 519 kts | 170° |
| 2026-05-05 23:53 | 32.08136 | -83.82325 | 37038 ft | 519 kts | 170° |
| 2026-05-05 23:53 | 32.01265 | -83.79676 | 37048 ft | 519 kts | 170° |
| 2026-05-05 23:54 | 31.94398 | -83.77018 | 37048 ft | 520 kts | 170° |
| 2026-05-05 23:54 | 31.87532 | -83.74348 | 37035 ft | 519 kts | 170° |
| 2026-05-05 23:55 | 31.80672 | -83.71695 | 37044 ft | 519 kts | 170° |
| 2026-05-05 23:55 | 31.73813 | -83.69056 | 37045 ft | 518 kts | 170° |
| 2026-05-05 23:56 | 31.66958 | -83.66431 | 37049 ft | 518 kts | 170° |
| 2026-05-05 23:56 | 31.60146 | -83.63813 | 37041 ft | 518 kts | 170° |
| 2026-05-05 23:57 | 31.53295 | -83.61178 | 37063 ft | 518 kts | 170° |
| 2026-05-05 23:57 | 31.46444 | -83.58557 | 37068 ft | 517 kts | 170° |
| 2026-05-05 23:58 | 31.39602 | -83.55943 | 37067 ft | 517 kts | 170° |
| 2026-05-05 23:58 | 31.32758 | -83.53327 | 37058 ft | 517 kts | 170° |
| 2026-05-05 23:59 | 31.25921 | -83.50717 | 37054 ft | 517 kts | 170° |
| 2026-05-05 23:59 | 31.19069 | -83.48102 | 37052 ft | 518 kts | 170° |
| 2026-05-06 00:00 | 31.12212 | -83.45492 | 37052 ft | 518 kts | 170° |
| 2026-05-06 00:00 | 31.05353 | -83.42896 | 37021 ft | 518 kts | 170° |
| 2026-05-06 00:01 | 30.98489 | -83.40302 | 37042 ft | 519 kts | 170° |
| 2026-05-06 00:01 | 30.91624 | -83.37702 | 37066 ft | 519 kts | 170° |
| 2026-05-06 00:02 | 30.84757 | -83.35107 | 37068 ft | 518 kts | 170° |
| 2026-05-06 00:02 | 30.77899 | -83.32512 | 37043 ft | 518 kts | 169° |
| 2026-05-06 00:03 | 30.71051 | -83.29873 | 37060 ft | 522 kts | 165° |
| 2026-05-06 00:03 | 30.64401 | -83.26366 | 37068 ft | 525 kts | 161° |
| 2026-05-06 00:04 | 30.58890 | -83.23401 | 37070 ft | 525 kts | 161° |
| 2026-05-06 00:04 | 30.52262 | -83.19831 | 37066 ft | 525 kts | 161° |
| 2026-05-06 00:05 | 30.42327 | -83.14489 | 37083 ft | 525 kts | 161° |
| 2026-05-06 00:06 | 30.35681 | -83.10935 | 37074 ft | 525 kts | 161° |
| 2026-05-06 00:06 | 30.29043 | -83.07380 | 37072 ft | 526 kts | 161° |
| 2026-05-06 00:07 | 30.22384 | -83.03831 | 37068 ft | 527 kts | 161° |
| 2026-05-06 00:07 | 30.15734 | -83.00279 | 37060 ft | 526 kts | 161° |
| 2026-05-06 00:08 | 30.09123 | -82.96749 | 37067 ft | 526 kts | 161° |
| 2026-05-06 00:08 | 30.02426 | -82.93185 | 37072 ft | 526 kts | 161° |
| 2026-05-06 00:09 | 29.95815 | -82.89677 | 37069 ft | 526 kts | 161° |
| 2026-05-06 00:09 | 29.89166 | -82.86157 | 37052 ft | 525 kts | 161° |
| 2026-05-06 00:10 | 29.82516 | -82.82643 | 37064 ft | 525 kts | 161° |
| 2026-05-06 00:10 | 29.75874 | -82.79125 | 37072 ft | 525 kts | 161° |
| 2026-05-06 00:11 | 29.69233 | -82.75610 | 37079 ft | 525 kts | 161° |
| 2026-05-06 00:11 | 29.62584 | -82.72113 | 37047 ft | 526 kts | 161° |
| 2026-05-06 00:12 | 29.55936 | -82.68621 | 37051 ft | 525 kts | 161° |
| 2026-05-06 00:12 | 29.49281 | -82.65128 | 37059 ft | 526 kts | 161° |
| 2026-05-06 00:13 | 29.42633 | -82.61633 | 37064 ft | 526 kts | 161° |
| 2026-05-06 00:13 | 29.35984 | -82.58144 | 37064 ft | 526 kts | 161° |
| 2026-05-06 00:14 | 29.29358 | -82.54743 | 37049 ft | 522 kts | 166° |
| 2026-05-06 00:14 | 29.22435 | -82.52860 | 37066 ft | 502 kts | 184° |
| 2026-05-06 00:15 | 29.15541 | -82.52714 | 37069 ft | 494 kts | 189° |
| 2026-05-06 00:15 | 29.08669 | -82.52723 | 37065 ft | 494 kts | 189° |
| 2026-05-06 00:16 | 29.01791 | -82.52720 | 37054 ft | 494 kts | 189° |
| 2026-05-06 00:16 | 28.94907 | -82.52711 | 37070 ft | 494 kts | 189° |
| 2026-05-06 00:17 | 28.88030 | -82.52707 | 37071 ft | 494 kts | 189° |
| 2026-05-06 00:17 | 28.81159 | -82.52700 | 37069 ft | 494 kts | 189° |
| 2026-05-06 00:18 | 28.74279 | -82.52695 | 37043 ft | 494 kts | 189° |
| 2026-05-06 00:18 | 28.67410 | -82.52694 | 37061 ft | 493 kts | 188° |
| 2026-05-06 00:19 | 28.60546 | -82.52689 | 37069 ft | 493 kts | 188° |
| 2026-05-06 00:19 | 28.53726 | -82.52693 | 37071 ft | 493 kts | 188° |
| 2026-05-06 00:20 | 28.46867 | -82.52692 | 37069 ft | 493 kts | 188° |
| 2026-05-06 00:20 | 28.40016 | -82.52680 | 37054 ft | 492 kts | 188° |
| 2026-05-06 00:21 | 28.33166 | -82.52674 | 37063 ft | 492 kts | 188° |
| 2026-05-06 00:21 | 28.26319 | -82.52670 | 37063 ft | 491 kts | 188° |
| 2026-05-06 00:22 | 28.19478 | -82.52667 | 37059 ft | 491 kts | 188° |
| 2026-05-06 00:22 | 28.12644 | -82.52669 | 37046 ft | 491 kts | 188° |
| 2026-05-06 00:23 | 28.05847 | -82.52669 | 37059 ft | 491 kts | 188° |
| 2026-05-06 00:23 | 27.98999 | -82.52151 | 37064 ft | 503 kts | 174° |
| 2026-05-06 00:24 | 27.92222 | -82.49928 | 37052 ft | 509 kts | 168° |
| 2026-05-06 00:24 | 27.85468 | -82.47534 | 37023 ft | 508 kts | 168° |
| 2026-05-06 00:25 | 27.78727 | -82.45135 | 37048 ft | 507 kts | 168° |
| 2026-05-06 00:25 | 27.71985 | -82.42740 | 37048 ft | 508 kts | 168° |
| 2026-05-06 00:26 | 27.65221 | -82.40328 | 37057 ft | 508 kts | 168° |
| 2026-05-06 00:26 | 27.58458 | -82.37951 | 37075 ft | 511 kts | 168° |
| 2026-05-06 00:27 | 27.51681 | -82.35569 | 37072 ft | 510 kts | 168° |
| 2026-05-06 00:27 | 27.44926 | -82.33185 | 37056 ft | 508 kts | 168° |
| 2026-05-06 00:28 | 27.38195 | -82.30705 | 37056 ft | 512 kts | 161° |
| 2026-05-06 00:28 | 27.34976 | -82.28927 | 36935 ft | 520 kts | 154° |
| 2026-05-06 00:28 | 27.31828 | -82.26934 | 36676 ft | 519 kts | 154° |
| 2026-05-06 00:28 | 27.28689 | -82.24936 | 36426 ft | 517 kts | 154° |
| 2026-05-06 00:29 | 27.25565 | -82.22944 | 36153 ft | 516 kts | 154° |
| 2026-05-06 00:29 | 27.22451 | -82.20957 | 35766 ft | 515 kts | 154° |
| 2026-05-06 00:29 | 27.19338 | -82.18973 | 35218 ft | 514 kts | 154° |
| 2026-05-06 00:29 | 27.16225 | -82.17009 | 34684 ft | 512 kts | 154° |
| 2026-05-06 00:30 | 27.13118 | -82.15041 | 34128 ft | 510 kts | 153° |
| 2026-05-06 00:30 | 27.10019 | -82.13087 | 33528 ft | 510 kts | 153° |
| 2026-05-06 00:30 | 27.06925 | -82.11133 | 32985 ft | 510 kts | 153° |
| 2026-05-06 00:30 | 27.03833 | -82.09183 | 32420 ft | 509 kts | 153° |
| 2026-05-06 00:31 | 27.00792 | -82.07264 | 31872 ft | 507 kts | 153° |
| 2026-05-06 00:31 | 26.97748 | -82.05288 | 31428 ft | 503 kts | 148° |
| 2026-05-06 00:31 | 26.95003 | -82.02872 | 31079 ft | 498 kts | 136° |
| 2026-05-06 00:31 | 26.92600 | -82.00108 | 30597 ft | 495 kts | 133° |
| 2026-05-06 00:32 | 26.90245 | -81.97332 | 29791 ft | 489 kts | 133° |
| 2026-05-06 00:32 | 26.87917 | -81.94593 | 28997 ft | 480 kts | 133° |
| 2026-05-06 00:32 | 26.85648 | -81.91918 | 28488 ft | 467 kts | 133° |
| 2026-05-06 00:32 | 26.83442 | -81.89310 | 27947 ft | 456 kts | 133° |
| 2026-05-06 00:33 | 26.81287 | -81.86759 | 27421 ft | 446 kts | 133° |
| 2026-05-06 00:33 | 26.79167 | -81.84255 | 26919 ft | 440 kts | 134° |
| 2026-05-06 00:33 | 26.77059 | -81.81766 | 26405 ft | 441 kts | 134° |
| 2026-05-06 00:33 | 26.74956 | -81.79289 | 26113 ft | 436 kts | 134° |
| 2026-05-06 00:34 | 26.72873 | -81.76852 | 25649 ft | 430 kts | 134° |
| 2026-05-06 00:34 | 26.70803 | -81.74448 | 25001 ft | 426 kts | 134° |
| 2026-05-06 00:34 | 26.68751 | -81.72072 | 24606 ft | 422 kts | 134° |
| 2026-05-06 00:34 | 26.66726 | -81.69730 | 24011 ft | 417 kts | 134° |
| 2026-05-06 00:35 | 26.64726 | -81.67417 | 23428 ft | 411 kts | 134° |
| 2026-05-06 00:35 | 26.62803 | -81.65080 | 22959 ft | 408 kts | 128° |
| 2026-05-06 00:35 | 26.61094 | -81.62558 | 22507 ft | 405 kts | 127° |
| 2026-05-06 00:35 | 26.59407 | -81.60050 | 22075 ft | 403 kts | 127° |
| 2026-05-06 00:36 | 26.57725 | -81.57547 | 21733 ft | 399 kts | 127° |
| 2026-05-06 00:36 | 26.56067 | -81.55080 | 21356 ft | 396 kts | 127° |
| 2026-05-06 00:36 | 26.54425 | -81.52638 | 20877 ft | 390 kts | 127° |
| 2026-05-06 00:36 | 26.52829 | -81.50262 | 20237 ft | 386 kts | 127° |
| 2026-05-06 00:37 | 26.51234 | -81.47884 | 19689 ft | 378 kts | 127° |
| 2026-05-06 00:37 | 26.49666 | -81.45553 | 19291 ft | 374 kts | 127° |
| 2026-05-06 00:37 | 26.48106 | -81.43241 | 18859 ft | 370 kts | 126° |
| 2026-05-06 00:37 | 26.46563 | -81.40955 | 18434 ft | 367 kts | 126° |
| 2026-05-06 00:38 | 26.45019 | -81.38668 | 17995 ft | 368 kts | 126° |
| 2026-05-06 00:38 | 26.43487 | -81.36402 | 17617 ft | 365 kts | 127° |
| 2026-05-06 00:38 | 26.41954 | -81.34144 | 17244 ft | 362 kts | 127° |
| 2026-05-06 00:38 | 26.40424 | -81.31928 | 16891 ft | 360 kts | 128° |
| 2026-05-06 00:39 | 26.38849 | -81.29768 | 16503 ft | 358 kts | 129° |
| 2026-05-06 00:39 | 26.37253 | -81.27649 | 16121 ft | 355 kts | 130° |
| 2026-05-06 00:39 | 26.35666 | -81.25565 | 15521 ft | 350 kts | 130° |
| 2026-05-06 00:39 | 26.34106 | -81.23516 | 15049 ft | 343 kts | 130° |
| 2026-05-06 00:40 | 26.32564 | -81.21479 | 14653 ft | 345 kts | 130° |
| 2026-05-06 00:40 | 26.31017 | -81.19432 | 14286 ft | 344 kts | 130° |
| 2026-05-06 00:40 | 26.29481 | -81.17390 | 13907 ft | 344 kts | 130° |
| 2026-05-06 00:40 | 26.27957 | -81.15360 | 13618 ft | 339 kts | 130° |
| 2026-05-06 00:41 | 26.26442 | -81.13358 | 13240 ft | 338 kts | 130° |
| 2026-05-06 00:41 | 26.24935 | -81.11375 | 12700 ft | 333 kts | 131° |
| 2026-05-06 00:41 | 26.23454 | -81.09425 | 12265 ft | 327 kts | 131° |
| 2026-05-06 00:41 | 26.21990 | -81.07498 | 11888 ft | 325 kts | 131° |
| 2026-05-06 00:42 | 26.20534 | -81.05587 | 11509 ft | 323 kts | 131° |
| 2026-05-06 00:42 | 26.19088 | -81.03689 | 11144 ft | 321 kts | 131° |
| 2026-05-06 00:42 | 26.17639 | -81.01790 | 10772 ft | 321 kts | 131° |
| 2026-05-06 00:42 | 26.16195 | -80.99892 | 10411 ft | 321 kts | 130° |
| 2026-05-06 00:43 | 26.14985 | -80.97823 | 10062 ft | 321 kts | 116° |
| 2026-05-06 00:43 | 26.14290 | -80.95480 | 9726 ft | 319 kts | 101° |
| 2026-05-06 00:43 | 26.13890 | -80.93071 | 9175 ft | 313 kts | 100° |
| 2026-05-06 00:43 | 26.13505 | -80.90711 | 8629 ft | 307 kts | 100° |
| 2026-05-06 00:44 | 26.13126 | -80.88392 | 8404 ft | 304 kts | 101° |
| 2026-05-06 00:44 | 26.12746 | -80.86082 | 8088 ft | 303 kts | 101° |
| 2026-05-06 00:44 | 26.12365 | -80.83789 | 7720 ft | 300 kts | 101° |
| 2026-05-06 00:44 | 26.11983 | -80.81515 | 7357 ft | 297 kts | 101° |
| 2026-05-06 00:45 | 26.11604 | -80.79253 | 6993 ft | 298 kts | 101° |
| 2026-05-06 00:45 | 26.11227 | -80.77002 | 6834 ft | 295 kts | 101° |
| 2026-05-06 00:45 | 26.10978 | -80.75515 | 6742 ft | 294 kts | 101° |
| 2026-05-06 00:45 | 26.10605 | -80.73288 | 6590 ft | 292 kts | 101° |
| 2026-05-06 00:46 | 26.10232 | -80.71074 | 6439 ft | 291 kts | 102° |
| 2026-05-06 00:46 | 26.09862 | -80.68867 | 6278 ft | 290 kts | 101° |
| 2026-05-06 00:46 | 26.09491 | -80.66655 | 6125 ft | 291 kts | 102° |
| 2026-05-06 00:46 | 26.09120 | -80.64449 | 5971 ft | 289 kts | 101° |
| 2026-05-06 00:47 | 26.08751 | -80.62264 | 5825 ft | 285 kts | 101° |
| 2026-05-06 00:47 | 26.08382 | -80.60094 | 5678 ft | 286 kts | 101° |
| 2026-05-06 00:47 | 26.08012 | -80.57920 | 5529 ft | 285 kts | 102° |
| 2026-05-06 00:47 | 26.07646 | -80.55749 | 5381 ft | 285 kts | 101° |
| 2026-05-06 00:48 | 26.07281 | -80.53589 | 5228 ft | 283 kts | 101° |
| 2026-05-06 00:48 | 26.06916 | -80.51439 | 5101 ft | 283 kts | 101° |
| 2026-05-06 00:48 | 26.06703 | -80.49250 | 4901 ft | 287 kts | 92° |
| 2026-05-06 00:48 | 26.06704 | -80.46978 | 4342 ft | 295 kts | 89° |
| 2026-05-06 00:49 | 26.06726 | -80.44727 | 4042 ft | 291 kts | 89° |
| 2026-05-06 00:49 | 26.06718 | -80.42494 | 3582 ft | 285 kts | 89° |
| 2026-05-06 00:49 | 26.06707 | -80.40379 | 3449 ft | 263 kts | 89° |
| 2026-05-06 00:49 | 26.06697 | -80.38426 | 3334 ft | 242 kts | 89° |
| 2026-05-06 00:50 | 26.06690 | -80.36609 | 3228 ft | 222 kts | 89° |
| 2026-05-06 00:50 | 26.06683 | -80.34961 | 3151 ft | 204 kts | 89° |
| 2026-05-06 00:50 | 26.06676 | -80.33401 | 2974 ft | 200 kts | 88° |
| 2026-05-06 00:50 | 26.06668 | -80.31892 | 2772 ft | 192 kts | 88° |
| 2026-05-06 00:51 | 26.06664 | -80.30437 | 2507 ft | 188 kts | 89° |
| 2026-05-06 00:51 | 26.06657 | -80.29001 | 2261 ft | 181 kts | 89° |
| 2026-05-06 00:51 | 26.06648 | -80.27693 | 2062 ft | 156 kts | 87° |
| 2026-05-06 00:51 | 26.06643 | -80.26542 | 1853 ft | 143 kts | 88° |
| 2026-05-06 00:52 | 26.06638 | -80.25454 | 1670 ft | 139 kts | 88° |
| 2026-05-06 00:52 | 26.06633 | -80.24395 | 1490 ft | 136 kts | 88° |
| 2026-05-06 00:52 | 26.06628 | -80.23351 | 1315 ft | 135 kts | 88° |
| 2026-05-06 00:52 | 26.06620 | -80.22304 | 1136 ft | 135 kts | 89° |
| 2026-05-06 00:53 | 26.06614 | -80.21258 | 981 ft | 134 kts | 87° |
| 2026-05-06 00:53 | 26.06624 | -80.20224 | 735 ft | 135 kts | 88° |
| 2026-05-06 00:53 | 26.06616 | -80.19190 | 520 ft | 134 kts | 89° |
| 2026-05-06 00:53 | 26.06600 | -80.18156 | 419 ft | 134 kts | 88° |
| 2026-05-06 00:54 | 26.06597 | -80.17109 | 304 ft | 135 kts | 88° |
| 2026-05-06 00:54 | 26.06598 | -80.16075 | 96 ft | 135 kts | 89° |
| 2026-05-06 00:54 | 26.06593 | -80.15097 | 20 ft | 109 kts | 91° |
| 2026-05-06 00:54 | 26.06588 | -80.14447 | 45 ft | 59 kts | 91° |
| 2026-05-06 00:55 | 26.06581 | -80.14174 | 60 ft | 19 kts | 90° |
| 2026-05-06 00:55 | 26.06579 | -80.14026 | 66 ft | 18 kts | 88° |
| 2026-05-06 00:55 | 26.06589 | -80.13865 | 75 ft | 21 kts | 81° |
| 2026-05-06 00:55 | 26.06665 | -80.13735 | 71 ft | 15 kts | 47° |
| 2026-05-06 00:56 | 26.06742 | -80.13745 | 65 ft | 12 kts | 283° |
| 2026-05-06 00:56 | 26.06741 | -80.13844 | 70 ft | 15 kts | 272° |
| 2026-05-06 00:56 | 26.06739 | -80.13974 | 75 ft | 18 kts | 261° |
| 2026-05-06 00:56 | 26.06690 | -80.14114 | 63 ft | 24 kts | 254° |
| 2026-05-06 00:57 | 26.06677 | -80.14304 | 49 ft | 23 kts | 270° |
| 2026-05-06 00:57 | 26.06677 | -80.14488 | 44 ft | 26 kts | 269° |
| 2026-05-06 00:57 | 26.06674 | -80.14694 | 31 ft | 23 kts | 270° |
| 2026-05-06 00:57 | 26.06693 | -80.14884 | 20 ft | 22 kts | 297° |
| 2026-05-06 00:58 | 26.06765 | -80.14866 | 16 ft | 15 kts | 81° |
| 2026-05-06 00:58 | 26.06767 | -80.14743 | 15 ft | 17 kts | 90° |
| 2026-05-06 00:58 | 26.06768 | -80.14623 | 15 ft | 14 kts | 82° |
| 2026-05-06 00:58 | 26.06817 | -80.14530 | 17 ft | 15 kts | 82° |
| 2026-05-06 00:59 | 26.06819 | -80.14438 | 16 ft | 7 kts | 89° |
| 2026-05-06 00:59 | 26.06819 | -80.14421 | 16 ft | 2 kts | 89° |
| 2026-05-06 00:59 | 26.06818 | -80.14383 | 16 ft | 9 kts | 93° |
| 2026-05-06 00:59 | 26.06855 | -80.14341 | 16 ft | 4 kts | 4° |
| 2026-05-06 01:00 | 26.06879 | -80.14341 | 16 ft | 0 kts | 0° |